createdAt,value
2023-04-04T00:01:21.127Z,56.38
2023-04-04T00:03:52.983Z,59.25
2023-04-04T00:06:22.332Z,55.80
2023-04-04T00:08:51.355Z,58.95
2023-04-04T00:11:20.360Z,59.90
2023-04-04T00:13:49.715Z,64.25
2023-04-04T00:16:19.182Z,63.75
2023-04-04T00:18:48.202Z,69.18
2023-04-04T00:21:17.254Z,62.80
2023-04-04T00:23:46.469Z,60.83
2023-04-04T00:26:15.437Z,64.93
2023-04-04T00:28:44.726Z,62.97
2023-04-04T00:31:13.752Z,60.45
2023-04-04T00:33:42.799Z,58.60
2023-04-04T00:36:12.781Z,58.63
2023-04-04T00:38:41.822Z,56.05
2023-04-04T00:41:10.853Z,64.18
2023-04-04T00:43:40.355Z,55.78
2023-04-04T00:46:12.628Z,56.03
2023-04-04T00:48:43.502Z,64.20
2023-04-04T00:51:12.775Z,65.13
2023-04-04T00:53:42.521Z,64.47
2023-04-04T00:56:12.507Z,57.33
2023-04-04T00:58:42.729Z,62.78
2023-04-04T01:01:15.097Z,54.60
2023-04-04T01:03:44.188Z,52.33
2023-04-04T01:06:13.567Z,55.88
2023-04-04T01:08:43.082Z,51.80
2023-04-04T01:11:12.893Z,51.53
2023-04-04T01:13:41.925Z,53.63
2023-04-04T01:16:11.012Z,48.33
2023-04-04T01:18:41.959Z,45.00
2023-04-04T01:21:14.807Z,54.88
2023-04-04T01:24:03.129Z,49.95
2023-04-04T01:26:33.240Z,51.00
2023-04-04T01:29:02.224Z,54.58
2023-04-04T01:31:48.794Z,45.33
2023-04-04T01:34:33.156Z,46.63
2023-04-04T01:37:44.178Z,47.97
2023-04-04T01:40:36.258Z,45.13
2023-04-04T01:43:05.563Z,46.65
2023-04-04T01:45:34.895Z,51.20
2023-04-04T01:48:04.019Z,42.00
2023-04-04T01:50:33.141Z,42.50
2023-04-04T01:53:02.479Z,48.40
2023-04-04T01:55:31.419Z,54.35
2023-04-04T01:58:00.425Z,42.78
2023-04-04T02:00:29.425Z,50.85
2023-04-04T02:02:58.521Z,45.60
2023-04-04T02:05:27.514Z,46.25
2023-04-04T02:07:57.007Z,56.95
2023-04-04T02:10:26.033Z,48.10
2023-04-04T02:12:55.246Z,48.10
2023-04-04T02:15:25.075Z,46.50
2023-04-04T02:17:58.868Z,43.33
2023-04-04T02:20:30.137Z,41.33
2023-04-04T02:22:59.512Z,40.50
2023-04-04T02:25:29.151Z,43.50
2023-04-04T02:27:58.266Z,43.58
2023-04-04T02:30:28.421Z,39.15
2023-04-04T02:33:01.158Z,41.13
2023-04-04T02:35:33.798Z,40.60
2023-04-04T02:38:03.436Z,46.70
2023-04-04T02:40:32.673Z,41.13
2023-04-04T02:43:01.870Z,47.70
2023-04-04T02:45:31.436Z,41.90
2023-04-04T02:48:00.561Z,47.97
2023-04-04T02:50:32.827Z,41.08
2023-04-04T02:53:03.414Z,38.25
2023-04-04T02:55:33.119Z,39.53
2023-04-04T02:58:03.189Z,42.17
2023-04-04T03:00:32.512Z,39.40
2023-04-04T03:03:01.662Z,37.90
2023-04-04T03:05:33.190Z,38.35
2023-04-04T03:08:02.884Z,37.25
2023-04-04T03:10:31.982Z,40.00
2023-04-04T03:13:01.314Z,41.85
2023-04-04T03:15:30.388Z,36.00
2023-04-04T03:18:00.286Z,42.15
2023-04-04T03:20:29.442Z,39.22
2023-04-04T03:22:59.788Z,38.10
2023-04-04T03:25:28.854Z,36.33
2023-04-04T03:28:00.569Z,39.80
2023-04-04T03:30:29.661Z,36.92
2023-04-04T03:32:58.678Z,38.63
2023-04-04T03:35:28.290Z,38.20
2023-04-04T03:37:57.496Z,36.30
2023-04-04T03:40:26.926Z,34.80
2023-04-04T03:42:56.173Z,38.72
2023-04-04T03:45:25.540Z,38.13
2023-04-04T03:47:54.636Z,38.10
2023-04-04T03:50:23.940Z,35.50
2023-04-04T03:52:52.996Z,37.25
2023-04-04T03:55:21.955Z,33.10
2023-04-04T03:57:51.092Z,35.05
2023-04-04T04:00:20.134Z,38.45
2023-04-04T04:02:49.129Z,37.33
2023-04-04T04:05:18.916Z,40.92
2023-04-04T04:07:47.976Z,42.22
2023-04-04T04:10:17.113Z,33.92
2023-04-04T04:12:46.114Z,33.45
2023-04-04T04:15:15.404Z,35.60
2023-04-04T04:17:44.488Z,39.45
2023-04-04T04:20:13.894Z,39.72
2023-04-04T04:22:48.598Z,37.33
2023-04-04T04:25:18.232Z,35.15
2023-04-04T04:27:47.337Z,40.50
2023-04-04T04:30:16.798Z,34.47
2023-04-04T04:32:46.073Z,42.17
2023-04-04T04:35:15.133Z,33.13
2023-04-04T04:37:44.313Z,38.22
2023-04-04T04:40:15.449Z,33.50
2023-04-04T04:42:51.866Z,33.08
2023-04-04T04:45:21.984Z,34.10
2023-04-04T04:47:54.845Z,36.17
2023-04-04T04:50:26.543Z,32.85
2023-04-04T04:53:04.698Z,38.45
2023-04-04T04:55:33.748Z,33.28
2023-04-04T04:58:02.846Z,35.40
2023-04-04T05:00:31.867Z,43.83
2023-04-04T05:03:03.639Z,35.17
2023-04-04T05:05:32.771Z,32.72
2023-04-04T05:08:03.942Z,36.35
2023-04-04T05:10:34.064Z,33.22
2023-04-04T05:13:03.249Z,34.90
2023-04-04T05:15:32.775Z,34.17
2023-04-04T05:18:01.885Z,34.83
2023-04-04T05:20:31.243Z,38.60
2023-04-04T05:23:00.187Z,33.70
2023-04-04T05:25:29.185Z,31.55
2023-04-04T05:27:59.841Z,31.00
2023-04-04T05:30:29.083Z,25.05
2023-04-04T05:32:58.077Z,27.67
2023-04-04T05:35:27.343Z,30.35
2023-04-04T05:37:56.368Z,26.25
2023-04-04T05:40:25.382Z,35.10
2023-04-04T05:43:05.500Z,27.73
2023-04-04T05:45:34.632Z,31.17
2023-04-04T05:48:04.079Z,33.92
2023-04-04T05:50:33.184Z,28.27
2023-04-04T05:53:07.781Z,25.08
2023-04-04T05:55:39.411Z,27.17
2023-04-04T05:58:13.875Z,27.23
2023-04-04T06:00:43.827Z,24.20
2023-04-04T06:03:13.889Z,21.92
2023-04-04T06:05:45.597Z,24.52
2023-04-04T06:08:14.619Z,25.27
2023-04-04T06:10:43.808Z,23.38
2023-04-04T06:13:12.827Z,21.73
2023-04-04T06:15:41.879Z,22.05
2023-04-04T06:18:11.021Z,25.38
2023-04-04T06:20:40.186Z,26.98
2023-04-04T06:23:11.169Z,25.50
2023-04-04T06:25:40.297Z,27.30
2023-04-04T06:28:10.323Z,29.70
2023-04-04T06:30:40.471Z,24.63
2023-04-04T06:33:09.661Z,29.05
2023-04-04T06:35:38.990Z,24.02
2023-04-04T06:38:09.201Z,25.08
2023-04-04T06:40:41.539Z,23.65
2023-04-04T06:43:14.138Z,26.30
2023-04-04T06:45:43.166Z,24.67
2023-04-04T06:48:12.170Z,26.23
2023-04-04T06:50:44.313Z,27.98
2023-04-04T06:53:19.533Z,25.30
2023-04-04T06:55:51.561Z,29.88
2023-04-04T06:58:21.004Z,25.05
2023-04-04T07:00:53.138Z,22.83
2023-04-04T07:03:24.836Z,28.83
2023-04-04T07:05:55.982Z,24.02
2023-04-04T07:08:25.644Z,29.67
2023-04-04T07:11:17.935Z,24.60
2023-04-04T07:13:54.620Z,27.65
2023-04-04T07:16:23.710Z,26.20
2023-04-04T07:18:55.711Z,25.85
2023-04-04T07:21:25.141Z,25.50
2023-04-04T07:23:57.348Z,22.75
2023-04-04T07:26:29.201Z,23.43
2023-04-04T07:28:58.288Z,25.70
2023-04-04T07:31:30.312Z,27.77
2023-04-04T07:33:59.369Z,32.25
2023-04-04T07:36:31.456Z,24.55
2023-04-04T07:39:06.427Z,25.75
2023-04-04T07:41:35.990Z,27.40
2023-04-04T07:44:08.928Z,26.40
2023-04-04T07:46:38.149Z,30.50
2023-04-04T07:49:16.031Z,25.60
2023-04-04T07:51:45.912Z,25.42
2023-04-04T07:54:16.702Z,23.63
2023-04-04T07:56:45.810Z,24.23
2023-04-04T07:59:16.799Z,28.65
2023-04-04T08:01:46.354Z,20.90
2023-04-04T08:04:17.052Z,24.65
2023-04-04T08:06:48.948Z,23.73
2023-04-04T08:09:20.670Z,21.98
2023-04-04T08:11:49.730Z,25.38
2023-04-04T08:14:20.283Z,22.77
2023-04-04T08:16:49.325Z,24.42
2023-04-04T08:19:19.070Z,22.83
2023-04-04T08:21:48.150Z,21.58
2023-04-04T08:24:17.196Z,27.92
2023-04-04T08:26:49.249Z,23.23
2023-04-04T08:29:30.308Z,21.55
2023-04-04T08:31:59.385Z,24.35
2023-04-04T08:34:31.280Z,24.88
2023-04-04T08:37:04.466Z,23.75
2023-04-04T08:39:33.574Z,24.58
2023-04-04T08:42:08.901Z,20.55
2023-04-04T08:44:47.601Z,24.55
2023-04-04T08:47:18.199Z,24.13
2023-04-04T08:49:50.378Z,23.85
2023-04-04T08:52:22.877Z,27.10
2023-04-04T08:54:58.980Z,22.38
2023-04-04T08:57:28.643Z,24.48
2023-04-04T09:00:01.117Z,27.15
2023-04-04T09:02:43.780Z,27.10
2023-04-04T09:05:14.723Z,24.80
2023-04-04T09:07:45.398Z,22.92
2023-04-04T09:10:14.445Z,23.40
2023-04-04T09:12:48.652Z,21.23
2023-04-04T09:15:17.846Z,19.83
2023-04-04T09:17:47.118Z,24.75
2023-04-04T09:20:43.539Z,23.02
2023-04-04T09:23:16.932Z,22.75
2023-04-04T09:28:23.748Z,23.85
2023-04-04T09:30:54.206Z,25.83
2023-04-04T09:33:25.885Z,27.60
2023-04-04T09:36:00.748Z,23.52
2023-04-04T09:38:32.578Z,28.17
2023-04-04T09:41:01.853Z,24.70
2023-04-04T09:43:33.758Z,22.17
2023-04-04T09:46:05.540Z,21.95
2023-04-04T09:48:37.451Z,21.35
2023-04-04T09:51:08.720Z,21.40
2023-04-04T09:53:43.329Z,22.67
2023-04-04T09:56:13.289Z,23.15
2023-04-04T09:59:02.737Z,28.77
2023-04-04T10:01:37.254Z,27.20
2023-04-04T10:04:07.693Z,25.15
2023-04-04T10:06:41.863Z,25.02
2023-04-04T10:09:14.241Z,26.27
2023-04-04T10:11:43.354Z,31.83
2023-04-04T10:14:15.687Z,25.85
2023-04-04T10:16:47.815Z,34.05
2023-04-04T10:19:20.345Z,32.83
2023-04-04T10:21:50.822Z,32.40
2023-04-04T10:24:20.396Z,27.45
2023-04-04T10:26:49.468Z,29.17
2023-04-04T10:29:18.530Z,29.00
2023-04-04T10:31:50.872Z,29.73
2023-04-04T10:34:44.542Z,30.27
2023-04-04T10:37:21.851Z,31.27
2023-04-04T10:40:06.908Z,33.00
2023-04-04T10:42:42.076Z,29.42
2023-04-04T10:45:20.330Z,30.15
2023-04-04T10:47:50.767Z,32.13
2023-04-04T10:50:22.188Z,29.90
2023-04-04T10:52:52.111Z,35.08
2023-04-04T10:55:21.733Z,31.25
2023-04-04T10:57:56.545Z,42.40
2023-04-04T11:00:25.912Z,32.95
2023-04-04T11:02:55.760Z,41.08
2023-04-04T11:05:30.945Z,45.17
2023-04-04T11:08:08.706Z,54.28
2023-04-04T11:10:46.326Z,56.22
2023-04-04T11:13:25.239Z,57.00
2023-04-04T11:15:57.992Z,48.80
2023-04-04T11:18:46.674Z,50.42
2023-04-04T11:21:21.058Z,45.25
2023-04-04T11:23:50.218Z,41.88
2023-04-04T11:26:35.655Z,37.20
2023-04-04T11:29:06.492Z,38.88
2023-04-04T11:31:46.495Z,66.78
2023-04-04T11:34:33.253Z,39.25
2023-04-04T11:37:19.159Z,33.97
2023-04-04T11:39:58.527Z,36.75
2023-04-04T11:42:39.952Z,32.17
2023-04-04T11:45:10.951Z,37.10
2023-04-04T11:47:43.486Z,40.95
2023-04-04T11:50:14.864Z,39.90
2023-04-04T11:52:44.641Z,38.78
2023-04-04T11:55:25.613Z,35.47
2023-04-04T11:57:56.729Z,39.55
2023-04-04T12:00:40.508Z,37.08
2023-04-04T12:03:12.692Z,38.03
2023-04-04T12:05:44.470Z,34.83
2023-04-04T12:08:15.352Z,34.65
2023-04-04T12:10:45.602Z,37.67
2023-04-04T12:13:14.658Z,43.15
2023-04-04T12:15:45.436Z,43.83
2023-04-04T12:18:23.443Z,48.78
2023-04-04T12:20:55.815Z,50.53
2023-04-04T12:23:24.873Z,53.97
2023-04-04T12:25:56.162Z,54.72
2023-04-04T12:28:27.209Z,57.38
2023-04-04T12:30:57.950Z,60.45
2023-04-04T12:33:27.717Z,53.08
2023-04-04T12:35:57.226Z,53.00
2023-04-04T12:38:26.983Z,52.88
2023-04-04T12:40:55.943Z,46.60
2023-04-04T12:43:28.370Z,54.15
2023-04-04T12:45:59.468Z,48.20
2023-04-04T12:48:31.383Z,54.20
2023-04-04T12:51:02.044Z,45.92
2023-04-04T12:53:31.728Z,48.70
2023-04-04T12:56:05.933Z,59.38
2023-04-04T12:58:37.154Z,64.45
2023-04-04T13:01:07.072Z,60.95
2023-04-04T13:03:36.454Z,76.13
2023-04-04T13:06:12.669Z,80.85
2023-04-04T13:08:54.841Z,90.88
2023-04-04T13:11:24.738Z,84.47
2023-04-04T13:14:04.380Z,67.88
2023-04-04T13:16:40.682Z,59.40
2023-04-04T13:19:10.376Z,57.47
2023-04-04T13:21:42.100Z,49.00
2023-04-04T13:24:11.270Z,43.15
2023-04-04T13:26:40.249Z,51.30
2023-04-04T13:29:09.244Z,46.38
2023-04-04T13:31:38.448Z,45.03
2023-04-04T13:34:07.970Z,40.45
2023-04-04T13:36:37.064Z,40.67
2023-04-04T13:39:06.360Z,42.53
2023-04-04T13:41:35.414Z,36.17
2023-04-04T13:44:10.328Z,40.90
2023-04-04T13:46:39.414Z,41.67
2023-04-04T13:49:08.486Z,45.15
2023-04-04T13:51:40.167Z,40.38
2023-04-04T13:54:09.195Z,46.70
2023-04-04T13:56:38.207Z,40.83
2023-04-04T13:59:07.249Z,45.17
2023-04-04T14:01:36.508Z,38.92
2023-04-04T14:04:22.714Z,41.50
2023-04-04T14:06:57.863Z,44.53
2023-04-04T14:09:26.926Z,41.28
2023-04-04T14:11:55.937Z,56.85
2023-04-04T14:14:25.404Z,68.20
2023-04-04T14:16:55.195Z,81.78
2023-04-04T14:19:24.939Z,68.13
2023-04-04T14:21:54.634Z,64.75
2023-04-04T14:24:24.767Z,60.08
2023-04-04T14:29:36.480Z,47.50
2023-04-04T14:32:08.231Z,44.47
2023-04-04T14:34:38.059Z,45.35
2023-04-04T14:37:07.874Z,44.10
2023-04-04T14:39:38.112Z,44.47
2023-04-04T14:42:07.981Z,42.78
2023-04-04T14:44:37.692Z,43.35
2023-04-04T14:47:07.590Z,40.78
2023-04-04T14:49:37.551Z,45.58
2023-04-04T14:52:07.150Z,42.33
2023-04-04T14:54:36.753Z,41.30
2023-04-04T14:57:06.394Z,40.13
2023-04-04T14:59:38.302Z,36.08
2023-04-04T15:02:08.103Z,43.00
2023-04-04T15:04:45.345Z,39.22
2023-04-04T15:07:27.535Z,41.50
2023-04-04T15:09:57.433Z,43.75
2023-04-04T15:12:28.124Z,41.78
2023-04-04T15:14:58.300Z,44.70
2023-04-04T15:17:28.077Z,41.83
2023-04-04T15:19:58.797Z,44.53
2023-04-04T15:22:28.436Z,48.08
2023-04-04T15:24:59.174Z,42.13
2023-04-04T15:27:28.798Z,48.08
2023-04-04T15:29:58.791Z,45.78
2023-04-04T15:32:28.683Z,45.80
2023-04-04T15:35:00.001Z,41.78
2023-04-04T15:37:29.617Z,44.72
2023-04-04T15:39:59.416Z,41.70
2023-04-04T15:42:30.163Z,46.13
2023-04-04T15:44:59.922Z,45.83
2023-04-04T15:47:31.470Z,45.63
2023-04-04T15:50:01.059Z,48.95
2023-04-04T15:52:30.597Z,52.85
2023-04-04T15:55:00.172Z,43.40
2023-04-04T15:57:29.619Z,42.67
2023-04-04T15:59:59.372Z,43.08
2023-04-04T16:02:29.080Z,41.85
2023-04-04T16:04:59.314Z,43.35
2023-04-04T16:07:28.946Z,39.33
2023-04-04T16:09:59.226Z,41.88
2023-04-04T16:12:30.009Z,44.80
2023-04-04T16:15:02.899Z,43.60
2023-04-04T16:17:33.197Z,44.03
2023-04-04T16:20:03.338Z,44.60
2023-04-04T16:22:33.337Z,40.05
2023-04-04T16:25:02.888Z,43.38
2023-04-04T16:27:32.580Z,51.92
2023-04-04T16:30:02.662Z,53.47
2023-04-04T16:32:33.952Z,52.05
2023-04-04T16:35:03.726Z,48.13
2023-04-04T16:37:33.291Z,43.08
2023-04-04T16:40:04.465Z,46.13
2023-04-04T16:42:34.218Z,45.13
2023-04-04T16:45:03.744Z,47.58
2023-04-04T16:47:33.348Z,45.13
2023-04-04T16:50:03.062Z,40.58
2023-04-04T16:52:33.162Z,46.80
2023-04-04T16:55:03.050Z,40.38
2023-04-04T16:57:32.656Z,43.55
2023-04-04T17:00:02.284Z,45.17
2023-04-04T17:02:31.822Z,42.08
2023-04-04T17:05:01.318Z,41.17
2023-04-04T17:07:37.252Z,41.60
2023-04-04T17:10:07.931Z,37.95
2023-04-04T17:12:37.821Z,42.22
2023-04-04T17:15:12.552Z,55.58
2023-04-04T17:17:42.354Z,48.50
2023-04-04T17:20:18.863Z,47.45
2023-04-04T17:22:49.055Z,41.78
2023-04-04T17:25:18.857Z,38.13
2023-04-04T17:27:48.552Z,39.55
2023-04-04T17:30:19.231Z,43.30
2023-04-04T17:32:50.457Z,37.00
2023-04-04T17:35:20.138Z,49.38
2023-04-04T17:37:49.873Z,50.08
2023-04-04T17:40:19.690Z,45.13
2023-04-04T17:42:49.297Z,44.40
2023-04-04T17:45:20.245Z,47.10
2023-04-04T17:47:49.768Z,44.92
2023-04-04T17:50:19.375Z,54.58
2023-04-04T17:52:48.864Z,44.17
2023-04-04T17:55:19.593Z,48.42
2023-04-04T17:57:49.314Z,45.78
2023-04-04T18:00:19.209Z,56.78
2023-04-04T18:02:48.859Z,47.63
2023-04-04T18:05:19.560Z,46.83
2023-04-04T18:07:49.064Z,44.10
2023-04-04T18:10:19.280Z,45.63
2023-04-04T18:12:48.989Z,46.15
2023-04-04T18:15:18.537Z,40.97
2023-04-04T18:17:54.913Z,48.45
2023-04-04T18:20:34.176Z,49.50
2023-04-04T18:23:13.124Z,39.10
2023-04-04T18:25:42.720Z,51.72
2023-04-04T18:28:12.350Z,50.00
2023-04-04T18:30:42.207Z,44.03
2023-04-04T18:33:11.971Z,43.08
2023-04-04T18:35:41.548Z,42.30
2023-04-04T18:38:11.108Z,46.50
2023-04-04T18:40:41.355Z,42.08
2023-04-04T18:43:11.100Z,55.50
2023-04-04T18:45:44.226Z,41.58
2023-04-04T18:48:14.367Z,43.43
2023-04-04T18:50:44.248Z,47.33
2023-04-04T18:53:13.783Z,46.45
2023-04-04T18:55:43.373Z,41.70
2023-04-04T18:58:20.835Z,39.03
2023-04-04T19:00:50.460Z,41.03
2023-04-04T19:03:19.960Z,51.20
2023-04-04T19:05:51.216Z,42.83
2023-04-04T19:08:21.540Z,36.85
2023-04-04T19:10:52.655Z,38.60
2023-04-04T19:13:22.286Z,37.58
2023-04-04T19:15:52.067Z,38.97
2023-04-04T19:18:21.609Z,39.63
2023-04-04T19:20:51.210Z,43.65
2023-04-04T19:23:20.825Z,36.22
2023-04-04T19:25:50.371Z,43.58
2023-04-04T19:28:19.900Z,44.28
2023-04-04T19:30:51.131Z,42.83
2023-04-04T19:33:23.510Z,44.05
2023-04-04T19:35:56.079Z,42.13
2023-04-04T19:38:36.719Z,45.47
2023-04-04T19:41:13.265Z,48.22
2023-04-04T19:43:45.209Z,42.78
2023-04-04T19:46:34.887Z,39.08
2023-04-04T19:49:14.310Z,48.90
2023-04-04T19:51:56.279Z,44.35
2023-04-04T19:54:35.980Z,43.95
2023-04-04T19:57:09.251Z,42.60
2023-04-04T20:00:03.034Z,45.25
2023-04-04T20:02:35.722Z,45.23
2023-04-04T20:05:45.123Z,45.65
2023-04-04T20:08:16.293Z,43.65
2023-04-04T20:10:45.795Z,43.58
2023-04-04T20:13:15.703Z,48.67
2023-04-04T20:15:49.440Z,41.85
2023-04-04T20:18:33.182Z,49.42
2023-04-04T20:21:04.559Z,41.03
2023-04-04T20:23:39.772Z,46.03
2023-04-04T20:26:10.386Z,48.85
2023-04-04T20:28:40.003Z,47.75
2023-04-04T20:31:12.416Z,48.08
2023-04-04T20:33:43.054Z,52.47
2023-04-04T20:36:34.504Z,47.58
2023-04-04T20:39:04.055Z,51.25
2023-04-04T20:41:33.483Z,42.53
2023-04-04T20:44:03.572Z,49.10
2023-04-04T20:46:38.540Z,48.30
2023-04-04T20:49:09.192Z,53.60
2023-04-04T20:51:39.484Z,43.58
2023-04-04T20:54:08.963Z,43.88
2023-04-04T20:56:48.532Z,43.72
2023-04-04T20:59:33.495Z,43.45
2023-04-04T21:02:13.254Z,42.47
2023-04-04T21:04:44.430Z,41.53
2023-04-04T21:07:36.369Z,46.30
2023-04-04T21:10:28.122Z,44.85
2023-04-04T21:13:04.812Z,46.13
2023-04-04T21:15:40.059Z,49.75
2023-04-04T21:18:12.209Z,50.80
2023-04-04T21:20:47.913Z,46.53
2023-04-04T21:23:29.526Z,43.33
2023-04-04T21:26:01.548Z,50.53
2023-04-04T21:28:44.983Z,56.83
2023-04-04T21:31:19.491Z,49.50
2023-04-04T21:33:51.149Z,47.85
2023-04-04T21:36:29.895Z,49.90
2023-04-04T21:39:07.830Z,47.97
2023-04-04T21:41:37.779Z,46.50
2023-04-04T21:44:10.075Z,51.97
2023-04-04T21:46:42.548Z,44.63
2023-04-04T21:49:12.811Z,50.28
2023-04-04T21:51:42.779Z,57.22
2023-04-04T21:54:12.817Z,52.40
2023-04-04T21:56:43.054Z,46.58
2023-04-04T21:59:12.882Z,50.65
2023-04-04T22:01:42.461Z,49.28
2023-04-04T22:04:12.012Z,47.97
2023-04-04T22:06:41.583Z,47.45
2023-04-04T22:09:11.083Z,48.42
2023-04-04T22:11:45.985Z,48.92
2023-04-04T22:14:18.955Z,53.78
2023-04-04T22:16:48.567Z,50.75
2023-04-04T22:19:18.042Z,53.00
2023-04-04T22:21:48.635Z,52.85
2023-04-04T22:24:19.320Z,48.97
2023-04-04T22:26:48.895Z,53.25
2023-04-04T22:29:18.364Z,50.38
2023-04-04T22:31:48.143Z,47.67
2023-04-04T22:34:17.904Z,52.40
2023-04-04T22:36:47.413Z,55.03
2023-04-04T22:39:17.395Z,55.28
2023-04-04T22:41:46.996Z,57.83
2023-04-04T22:44:16.498Z,54.45
2023-04-04T22:46:45.996Z,61.50
2023-04-04T22:49:17.788Z,50.05
2023-04-04T22:51:47.490Z,53.30
2023-04-04T22:54:17.969Z,51.83
2023-04-04T22:56:47.558Z,65.25
2023-04-04T22:59:17.302Z,67.55
2023-04-04T23:01:47.167Z,83.47
2023-04-04T23:04:18.148Z,61.92
2023-04-04T23:06:47.972Z,51.05
2023-04-04T23:09:17.743Z,57.53
2023-04-04T23:11:48.612Z,52.42
2023-04-04T23:14:21.216Z,60.55
2023-04-04T23:16:54.204Z,53.42
2023-04-04T23:19:23.781Z,61.03
2023-04-04T23:21:54.467Z,84.28
2023-04-04T23:24:24.881Z,68.78
2023-04-04T23:26:54.347Z,51.67
2023-04-04T23:29:23.953Z,51.65
2023-04-04T23:31:53.460Z,56.20
2023-04-04T23:34:23.172Z,65.90
2023-04-04T23:36:53.254Z,60.35
2023-04-04T23:39:22.675Z,67.07
2023-04-04T23:41:52.805Z,59.95
2023-04-04T23:44:22.610Z,67.30
2023-04-04T23:46:52.759Z,78.28
2023-04-04T23:49:22.449Z,111.95
2023-04-04T23:51:52.569Z,92.75
2023-04-04T23:54:22.040Z,94.32
2023-04-04T23:56:51.859Z,97.38
2023-04-04T23:59:21.494Z,104.95
